createdAt,value
2019-04-01T00:02:22.067Z,11.46
2019-04-01T00:04:50.449Z,11.43
2019-04-01T00:07:18.801Z,11.37
2019-04-01T00:09:47.180Z,11.40
2019-04-01T00:12:15.602Z,11.37
2019-04-01T00:14:43.980Z,11.35
2019-04-01T00:17:12.331Z,11.09
2019-04-01T00:19:40.677Z,11.27
2019-04-01T00:22:09.059Z,11.16
2019-04-01T00:24:37.476Z,11.10
2019-04-01T00:27:05.933Z,11.12
2019-04-01T00:29:34.286Z,11.08
2019-04-01T00:32:02.678Z,11.02
2019-04-01T00:34:31.027Z,11.09
2019-04-01T00:36:59.411Z,10.99
2019-04-01T00:39:27.761Z,11.10
2019-04-01T00:42:16.219Z,11.15
2019-04-01T00:44:44.568Z,11.04
2019-04-01T00:47:13.126Z,11.06
2019-04-01T00:49:41.470Z,11.01
2019-04-01T00:52:09.851Z,11.08
2019-04-01T00:54:38.204Z,10.99
2019-04-01T00:57:06.589Z,11.13
2019-04-01T00:59:34.943Z,11.03
2019-04-01T01:02:03.405Z,11.04
2019-04-01T01:04:31.751Z,10.84
2019-04-01T01:07:00.134Z,10.82
2019-04-01T01:09:28.482Z,10.90
2019-04-01T01:11:56.861Z,10.79
2019-04-01T01:14:25.277Z,10.80
2019-04-01T01:16:53.650Z,10.88
2019-04-01T01:19:22.006Z,10.89
2019-04-01T01:21:50.384Z,10.90
2019-04-01T01:24:18.734Z,10.90
2019-04-01T01:26:47.187Z,10.78
2019-04-01T01:29:15.548Z,10.76
2019-04-01T01:31:44.221Z,10.72
2019-04-01T01:34:13.240Z,10.76
2019-04-01T01:36:41.619Z,10.84
2019-04-01T01:39:09.973Z,10.43
2019-04-01T01:41:38.359Z,10.54
2019-04-01T01:44:06.709Z,10.69
2019-04-01T01:46:35.090Z,10.61
2019-04-01T01:49:03.442Z,10.66
2019-04-01T01:51:31.896Z,10.56
2019-04-01T01:54:00.255Z,10.64
2019-04-01T01:56:28.945Z,10.56
2019-04-01T01:58:59.220Z,10.42
2019-04-01T02:01:27.797Z,10.42
2019-04-01T02:03:56.245Z,10.41
2019-04-01T02:06:24.704Z,10.41
2019-04-01T02:08:53.159Z,10.35
2019-04-01T02:11:22.956Z,10.33
2019-04-01T02:13:51.344Z,10.40
2019-04-01T02:16:19.823Z,10.25
2019-04-01T02:18:48.341Z,10.51
2019-04-01T02:21:16.812Z,10.49
2019-04-01T02:23:46.998Z,10.49
2019-04-01T02:26:15.354Z,10.34
2019-04-01T02:28:43.804Z,10.40
2019-04-01T02:31:12.229Z,10.14
2019-04-01T02:33:40.611Z,10.29
2019-04-01T02:36:09.030Z,10.29
2019-04-01T02:38:37.414Z,10.40
2019-04-01T02:41:05.852Z,10.20
2019-04-01T02:43:34.229Z,10.37
2019-04-01T02:46:02.573Z,10.27
2019-04-01T02:48:30.957Z,10.23
2019-04-01T02:50:59.308Z,10.32
2019-04-01T02:53:27.683Z,10.13
2019-04-01T02:55:56.035Z,10.20
2019-04-01T02:58:24.411Z,10.06
2019-04-01T03:00:52.835Z,10.10
2019-04-01T03:03:21.226Z,9.77
2019-04-01T03:05:49.638Z,9.64
2019-04-01T03:08:18.015Z,9.88
2019-04-01T03:10:46.359Z,9.94
2019-04-01T03:13:14.737Z,9.88
2019-04-01T03:15:43.083Z,9.84
2019-04-01T03:18:11.459Z,9.64
2019-04-01T03:20:39.810Z,9.51
2019-04-01T03:23:08.258Z,9.57
2019-04-01T03:25:36.617Z,9.70
2019-04-01T03:28:05.217Z,9.64
2019-04-01T03:30:33.646Z,9.49
2019-04-01T03:33:02.002Z,9.29
2019-04-01T03:35:30.438Z,9.41
2019-04-01T03:37:58.777Z,9.61
2019-04-01T03:40:27.222Z,9.47
2019-04-01T03:42:55.561Z,9.35
2019-04-01T03:45:24.001Z,9.35
2019-04-01T03:47:52.349Z,9.34
2019-04-01T03:50:21.753Z,9.29
2019-04-01T03:52:50.345Z,9.47
2019-04-01T03:55:19.096Z,9.15
2019-04-01T03:57:47.436Z,9.36
2019-04-01T04:00:16.599Z,9.38
2019-04-01T04:02:44.934Z,9.27
2019-04-01T04:05:13.454Z,9.27
2019-04-01T04:07:41.875Z,9.25
2019-04-01T04:10:10.346Z,9.19
2019-04-01T04:12:38.673Z,9.04
2019-04-01T04:15:07.528Z,9.04
2019-04-01T04:17:36.137Z,9.09
2019-04-01T04:20:04.747Z,9.11
2019-04-01T04:22:33.337Z,8.92
2019-04-01T04:25:01.862Z,9.09
2019-04-01T04:27:30.394Z,8.50
2019-04-01T04:29:58.965Z,8.91
2019-04-01T04:32:27.281Z,8.63
2019-04-01T04:34:57.454Z,8.67
2019-04-01T04:37:25.798Z,8.73
2019-04-01T04:39:54.243Z,8.82
2019-04-01T04:42:22.583Z,9.05
2019-04-01T04:44:51.112Z,8.89
2019-04-01T04:47:19.845Z,8.92
2019-04-01T04:49:48.297Z,8.81
2019-04-01T04:52:16.958Z,8.87
2019-04-01T04:54:45.326Z,8.95
2019-04-01T04:57:13.679Z,8.95
2019-04-01T04:59:42.058Z,8.85
2019-04-01T05:02:10.536Z,8.98
2019-04-01T05:04:38.917Z,8.74
2019-04-01T05:07:07.264Z,8.90
2019-04-01T05:09:35.644Z,8.87
2019-04-01T05:12:03.995Z,8.95
2019-04-01T05:14:32.334Z,8.91
2019-04-01T05:17:00.809Z,8.84
2019-04-01T05:19:29.155Z,8.91
2019-04-01T05:21:58.602Z,8.89
2019-04-01T05:24:27.115Z,8.44
2019-04-01T05:26:55.935Z,8.49
2019-04-01T05:29:24.848Z,8.85
2019-04-01T05:31:55.175Z,8.90
2019-04-01T05:34:25.133Z,8.81
2019-04-01T05:36:53.581Z,8.70
2019-04-01T05:39:21.998Z,8.78
2019-04-01T05:41:50.371Z,8.87
2019-04-01T05:44:18.814Z,8.91
2019-04-01T05:46:47.315Z,8.99
2019-04-01T05:49:16.131Z,9.12
2019-04-01T05:51:44.644Z,9.14
2019-04-01T05:54:13.054Z,9.13
2019-04-01T05:56:41.437Z,9.24
2019-04-01T05:59:10.050Z,9.30
2019-04-01T06:01:40.347Z,9.35
2019-04-01T06:04:08.752Z,9.37
2019-04-01T06:06:37.464Z,9.23
2019-04-01T06:09:07.762Z,9.51
2019-04-01T06:11:36.873Z,9.55
2019-04-01T06:14:05.560Z,9.55
2019-04-01T06:16:34.010Z,9.11
2019-04-01T06:19:05.869Z,9.35
2019-04-01T06:21:32.805Z,9.43
2019-04-01T06:24:01.216Z,9.40
2019-04-01T06:26:29.585Z,9.54
2019-04-01T06:28:58.006Z,9.52
2019-04-01T06:31:26.380Z,9.44
2019-04-01T06:33:55.065Z,9.69
2019-04-01T06:36:23.515Z,9.80
2019-04-01T06:38:52.023Z,9.74
2019-04-01T06:41:20.700Z,9.78
2019-04-01T06:43:49.323Z,9.76
2019-04-01T06:46:17.776Z,9.80
2019-04-01T06:48:46.189Z,9.76
2019-04-01T06:51:14.568Z,9.77
2019-04-01T06:53:43.450Z,9.96
2019-04-01T06:56:11.875Z,9.84
2019-04-01T06:58:40.322Z,9.81
2019-04-01T07:01:10.389Z,9.86
2019-04-01T07:03:38.910Z,9.88
2019-04-01T07:06:10.080Z,9.99
2019-04-01T07:08:39.269Z,10.02
2019-04-01T07:11:08.468Z,10.06
2019-04-01T07:13:40.072Z,9.88
2019-04-01T07:16:15.454Z,10.06
2019-04-01T07:18:37.690Z,9.97
2019-04-01T07:21:06.103Z,9.90
2019-04-01T07:23:34.485Z,10.01
2019-04-01T07:26:02.903Z,10.05
2019-04-01T07:28:31.359Z,10.19
2019-04-01T07:30:59.782Z,10.17
2019-04-01T07:33:28.236Z,10.04
2019-04-01T07:35:56.585Z,10.19
2019-04-01T07:38:25.036Z,10.31
2019-04-01T07:40:53.557Z,10.32
2019-04-01T07:43:22.008Z,10.30
2019-04-01T07:45:50.632Z,10.34
2019-04-01T07:48:19.084Z,10.32
2019-04-01T07:50:47.777Z,10.28
2019-04-01T07:53:16.179Z,10.37
2019-04-01T07:55:44.898Z,10.52
2019-04-01T07:58:13.275Z,10.55
2019-04-01T08:00:41.628Z,10.56
2019-04-01T08:03:10.085Z,10.63
2019-04-01T08:05:38.503Z,10.67
2019-04-01T08:08:06.882Z,10.67
2019-04-01T08:10:35.307Z,10.62
2019-04-01T08:13:03.832Z,10.76
2019-04-01T08:15:32.524Z,10.79
2019-04-01T08:18:00.967Z,10.72
2019-04-01T08:20:29.386Z,10.83
2019-04-01T08:22:57.841Z,10.90
2019-04-01T08:25:26.188Z,10.94
2019-04-01T08:27:54.640Z,10.83
2019-04-01T08:30:23.132Z,10.93
2019-04-01T08:32:51.729Z,11.04
2019-04-01T08:35:20.077Z,11.02
2019-04-01T08:37:48.427Z,11.08
2019-04-01T08:40:16.943Z,11.13
2019-04-01T08:42:48.735Z,11.15
2019-04-01T08:45:15.552Z,11.21
2019-04-01T08:47:44.231Z,11.19
2019-04-01T08:50:13.062Z,11.20
2019-04-01T08:52:41.490Z,11.31
2019-04-01T08:55:10.008Z,11.38
2019-04-01T08:57:38.353Z,11.43
2019-04-01T09:00:07.739Z,11.43
2019-04-01T09:02:36.165Z,11.50
2019-04-01T09:05:05.421Z,11.57
2019-04-01T09:07:33.939Z,11.60
2019-04-01T09:10:02.527Z,11.62
2019-04-01T09:12:30.952Z,11.66
2019-04-01T09:15:00.399Z,11.71
2019-04-01T09:17:28.773Z,11.70
2019-04-01T09:19:57.151Z,11.72
2019-04-01T09:22:25.494Z,11.77
2019-04-01T09:24:53.877Z,11.81
2019-04-01T09:27:22.231Z,11.81
2019-04-01T09:29:50.617Z,11.89
2019-04-01T09:32:19.036Z,11.93
2019-04-01T09:34:47.414Z,11.93
2019-04-01T09:37:15.767Z,11.98
2019-04-01T09:39:44.220Z,12.04
2019-04-01T09:42:12.636Z,12.06
2019-04-01T09:44:41.012Z,12.12
2019-04-01T09:47:09.364Z,12.14
2019-04-01T09:49:37.749Z,12.21
2019-04-01T09:52:06.172Z,12.25
2019-04-01T09:54:34.556Z,12.25
2019-04-01T09:57:16.727Z,12.28
2019-04-01T09:59:33.014Z,12.30
2019-04-01T10:02:01.430Z,12.34
2019-04-01T10:04:29.953Z,12.36
2019-04-01T10:06:58.294Z,12.42
2019-04-01T10:09:26.687Z,12.42
2019-04-01T10:11:55.039Z,12.44
2019-04-01T10:14:23.390Z,12.54
2019-04-01T10:16:52.046Z,12.53
2019-04-01T10:19:20.751Z,12.60
2019-04-01T10:21:49.365Z,12.61
2019-04-01T10:24:17.726Z,12.69
2019-04-01T10:26:46.100Z,12.73
2019-04-01T10:29:14.446Z,12.69
2019-04-01T10:31:42.905Z,12.69
2019-04-01T10:34:11.393Z,12.81
2019-04-01T10:36:39.772Z,12.86
2019-04-01T10:39:08.180Z,12.82
2019-04-01T10:41:36.559Z,12.93
2019-04-01T10:44:05.093Z,12.93
2019-04-01T10:46:33.474Z,12.99
2019-04-01T10:49:01.846Z,12.96
2019-04-01T10:51:30.261Z,13.08
2019-04-01T10:53:58.610Z,13.14
2019-04-01T10:56:26.981Z,13.13
2019-04-01T10:58:55.447Z,13.17
2019-04-01T11:01:23.904Z,13.22
2019-04-01T11:03:52.324Z,13.21
2019-04-01T11:06:20.970Z,13.18
2019-04-01T11:08:49.344Z,13.15
2019-04-01T11:11:17.858Z,13.23
2019-04-01T11:13:46.216Z,13.30
2019-04-01T11:16:14.660Z,13.30
2019-04-01T11:18:43.024Z,13.46
2019-04-01T11:21:11.470Z,13.41
2019-04-01T11:23:39.894Z,13.48
2019-04-01T11:26:08.282Z,13.36
2019-04-01T11:28:36.641Z,13.48
2019-04-01T11:31:05.091Z,13.58
2019-04-01T11:33:33.616Z,13.64
2019-04-01T11:36:01.991Z,13.68
2019-04-01T11:38:30.358Z,13.88
2019-04-01T11:40:58.940Z,13.80
2019-04-01T11:43:27.297Z,13.59
2019-04-01T11:45:55.825Z,13.72
2019-04-01T11:48:24.248Z,13.88
2019-04-01T11:50:53.807Z,13.86
2019-04-01T11:53:22.621Z,13.88
2019-04-01T11:55:51.084Z,13.78
2019-04-01T11:58:19.515Z,13.92
2019-04-01T12:00:48.584Z,13.88
2019-04-01T12:03:17.047Z,14.08
2019-04-01T12:05:45.577Z,13.96
2019-04-01T12:08:14.042Z,14.21
2019-04-01T12:10:42.663Z,14.23
2019-04-01T12:13:11.055Z,14.16
2019-04-01T12:15:39.789Z,14.31
2019-04-01T12:18:08.179Z,14.36
2019-04-01T12:20:37.494Z,14.35
2019-04-01T12:23:06.739Z,14.20
2019-04-01T12:25:35.164Z,14.29
2019-04-01T12:28:03.849Z,14.33
2019-04-01T12:30:32.202Z,14.65
2019-04-01T12:33:00.959Z,14.56
2019-04-01T12:35:29.385Z,14.49
2019-04-01T12:37:57.936Z,14.43
2019-04-01T12:40:26.921Z,14.53
2019-04-01T12:42:55.442Z,14.54
2019-04-01T12:45:24.569Z,14.60
2019-04-01T12:47:52.953Z,14.73
2019-04-01T12:50:21.373Z,14.77
2019-04-01T12:52:49.756Z,14.60
2019-04-01T12:55:18.238Z,15.00
2019-04-01T12:57:48.524Z,14.80
2019-04-01T13:00:17.011Z,14.78
2019-04-01T13:02:45.459Z,14.74
2019-04-01T13:05:14.049Z,14.70
2019-04-01T13:07:42.529Z,14.83
2019-04-01T13:10:10.919Z,15.00
2019-04-01T13:12:39.314Z,15.01
2019-04-01T13:15:08.308Z,14.90
2019-04-01T13:17:36.688Z,15.02
2019-04-01T13:20:06.278Z,15.08
2019-04-01T13:22:34.625Z,15.12
2019-04-01T13:25:05.661Z,15.14
2019-04-01T13:27:33.157Z,15.09
2019-04-01T13:30:01.509Z,15.16
2019-04-01T13:32:29.864Z,15.26
2019-04-01T13:34:58.251Z,15.37
2019-04-01T13:37:26.601Z,15.30
2019-04-01T13:39:55.876Z,15.37
2019-04-01T13:42:25.031Z,15.32
2019-04-01T13:44:53.649Z,15.39
2019-04-01T13:47:22.001Z,15.39
2019-04-01T13:49:50.392Z,15.24
2019-04-01T13:52:18.737Z,15.45
2019-04-01T13:54:47.202Z,15.50
2019-04-01T13:57:15.620Z,15.38
2019-04-01T13:59:49.531Z,15.42
2019-04-01T14:02:14.084Z,15.61
2019-04-01T14:04:42.473Z,15.41
2019-04-01T14:07:10.818Z,15.74
2019-04-01T14:09:39.200Z,15.59
2019-04-01T14:12:07.618Z,15.49
2019-04-01T14:14:36.054Z,15.38
2019-04-01T14:17:04.499Z,15.44
2019-04-01T14:19:32.886Z,15.48
2019-04-01T14:22:01.320Z,15.69
2019-04-01T14:24:29.870Z,15.57
2019-04-01T14:26:58.221Z,15.66
2019-04-01T14:29:26.675Z,16.26
2019-04-01T14:31:55.021Z,16.03
2019-04-01T14:34:23.876Z,15.85
2019-04-01T14:36:52.343Z,15.88
2019-04-01T14:39:20.736Z,15.94
2019-04-01T14:41:49.113Z,16.09
2019-04-01T14:44:17.554Z,16.11
2019-04-01T14:46:46.045Z,15.91
2019-04-01T14:49:14.440Z,16.06
2019-04-01T14:51:42.857Z,15.95
2019-04-01T14:54:11.260Z,16.21
2019-04-01T14:56:39.610Z,16.01
2019-04-01T14:59:08.060Z,16.22
2019-04-01T15:01:36.409Z,16.18
2019-04-01T15:04:04.873Z,16.12
2019-04-01T15:06:33.292Z,16.38
2019-04-01T15:09:01.641Z,16.41
2019-04-01T15:11:30.030Z,16.18
2019-04-01T15:14:00.042Z,16.31
2019-04-01T15:16:28.474Z,16.42
2019-04-01T15:18:56.825Z,16.38
2019-04-01T15:21:25.202Z,16.56
2019-04-01T15:23:53.584Z,16.74
2019-04-01T15:26:21.935Z,16.52
2019-04-01T15:28:50.287Z,16.65
2019-04-01T15:31:18.658Z,16.66
2019-04-01T15:33:47.011Z,16.60
2019-04-01T15:36:15.398Z,16.56
2019-04-01T15:38:43.756Z,16.65
2019-04-01T15:41:12.188Z,16.90
2019-04-01T15:43:41.038Z,16.77
2019-04-01T15:46:09.766Z,16.81
2019-04-01T15:48:38.116Z,16.76
2019-04-01T15:51:07.716Z,16.76
2019-04-01T15:53:36.342Z,16.72
2019-04-01T15:56:04.871Z,16.84
2019-04-01T15:58:33.229Z,16.89
2019-04-01T16:01:01.688Z,17.04
2019-04-01T16:03:30.042Z,16.95
2019-04-01T16:06:00.407Z,16.98
2019-04-01T16:08:29.129Z,16.99
2019-04-01T16:10:59.773Z,16.92
2019-04-01T16:13:31.648Z,16.85
2019-04-01T16:16:02.459Z,16.74
2019-04-01T16:18:31.168Z,16.78
2019-04-01T16:21:00.493Z,16.73
2019-04-01T16:23:29.077Z,16.74
2019-04-01T16:25:59.269Z,16.62
2019-04-01T16:28:29.764Z,16.57
2019-04-01T16:31:00.319Z,16.66
2019-04-01T16:33:30.922Z,16.48
2019-04-01T16:36:01.342Z,16.53
2019-04-01T16:38:30.578Z,16.58
2019-04-01T16:40:59.572Z,16.82
2019-04-01T16:43:28.313Z,16.78
2019-04-01T16:45:57.007Z,16.74
2019-04-01T16:48:25.807Z,16.68
2019-04-01T16:50:54.621Z,16.54
2019-04-01T16:53:23.303Z,16.49
2019-04-01T16:55:51.651Z,16.47
2019-04-01T16:58:20.052Z,16.25
2019-04-01T17:00:49.131Z,16.20
2019-04-01T17:03:19.379Z,16.15
2019-04-01T17:05:48.114Z,16.12
2019-04-01T17:08:22.022Z,16.08
2019-04-01T17:10:50.961Z,16.08
2019-04-01T17:13:19.909Z,15.97
2019-04-01T17:15:49.128Z,15.94
2019-04-01T17:18:20.898Z,15.91
2019-04-01T17:20:49.251Z,15.81
2019-04-01T17:23:17.715Z,15.81
2019-04-01T17:25:46.142Z,15.73
2019-04-01T17:28:14.530Z,15.69
2019-04-01T17:30:42.952Z,15.59
2019-04-01T17:33:11.415Z,15.53
2019-04-01T17:35:39.820Z,15.46
2019-04-01T17:38:08.277Z,15.46
2019-04-01T17:40:36.696Z,15.39
2019-04-01T17:43:05.141Z,15.32
2019-04-01T17:45:36.008Z,15.23
2019-04-01T17:48:05.160Z,15.15
2019-04-01T17:50:33.720Z,15.09
2019-04-01T17:53:02.444Z,15.00
2019-04-01T17:55:30.900Z,14.96
2019-04-01T17:57:59.284Z,14.91
2019-04-01T18:00:29.344Z,14.86
2019-04-01T18:02:57.977Z,14.75
2019-04-01T18:05:26.863Z,14.71
2019-04-01T18:07:55.311Z,14.64
2019-04-01T18:10:23.733Z,14.58
2019-04-01T18:12:52.824Z,14.52
2019-04-01T18:15:22.892Z,14.51
2019-04-01T18:17:53.241Z,14.44
2019-04-01T18:20:21.674Z,14.39
2019-04-01T18:22:50.053Z,14.34
2019-04-01T18:25:18.844Z,14.29
2019-04-01T18:27:47.233Z,14.23
2019-04-01T18:30:17.711Z,14.19
2019-04-01T18:32:46.281Z,14.15
2019-04-01T18:35:14.731Z,14.10
2019-04-01T18:37:43.074Z,14.07
2019-04-01T18:40:11.996Z,14.04
2019-04-01T18:42:40.620Z,13.99
2019-04-01T18:45:11.890Z,13.91
2019-04-01T18:47:40.396Z,13.89
2019-04-01T18:50:08.827Z,13.85
2019-04-01T18:52:38.227Z,13.78
2019-04-01T18:55:08.031Z,13.70
2019-04-01T18:57:36.613Z,13.66
2019-04-01T19:00:08.376Z,13.63
2019-04-01T19:02:36.942Z,13.60
2019-04-01T19:05:06.038Z,13.55
2019-04-01T19:07:35.493Z,13.50
2019-04-01T19:10:06.916Z,13.45
2019-04-01T19:12:36.136Z,13.48
2019-04-01T19:15:09.955Z,13.47
2019-04-01T19:17:37.609Z,13.48
2019-04-01T19:20:08.997Z,13.47
2019-04-01T19:22:37.405Z,13.47
2019-04-01T19:25:07.528Z,13.46
2019-04-01T19:27:36.274Z,13.47
2019-04-01T19:30:06.632Z,13.41
2019-04-01T19:32:35.357Z,13.31
2019-04-01T19:35:05.091Z,13.30
2019-04-01T19:37:34.071Z,13.25
2019-04-01T19:40:02.603Z,13.23
2019-04-01T19:42:31.148Z,13.18
2019-04-01T19:44:59.570Z,13.08
2019-04-01T19:47:27.997Z,13.08
2019-04-01T19:49:56.428Z,13.08
2019-04-01T19:52:25.355Z,13.07
2019-04-01T19:54:55.250Z,12.98
2019-04-01T19:57:23.598Z,12.91
2019-04-01T19:59:57.010Z,12.91
2019-04-01T20:02:27.857Z,12.95
2019-04-01T20:04:59.631Z,12.91
2019-04-01T20:07:33.559Z,12.87
2019-04-01T20:12:51.475Z,12.70
2019-04-01T20:15:23.361Z,12.73
2019-04-01T20:17:52.139Z,12.72
2019-04-01T20:20:22.792Z,12.70
2019-04-01T20:22:59.385Z,12.61
2019-04-01T20:25:29.553Z,12.56
2019-04-01T20:27:59.104Z,12.52
2019-04-01T20:30:34.331Z,12.40
2019-04-01T20:33:16.825Z,12.39
2019-04-01T20:35:35.061Z,12.45
2019-04-01T20:38:05.877Z,12.33
2019-04-01T20:40:34.380Z,12.46
2019-04-01T20:43:03.166Z,12.36
2019-04-01T20:45:31.752Z,12.28
2019-04-01T20:48:00.171Z,12.18
2019-04-01T20:50:28.830Z,12.30
2019-04-01T20:52:57.349Z,12.14
2019-04-01T20:55:26.427Z,12.09
2019-04-01T20:57:55.174Z,11.98
2019-04-01T21:00:24.193Z,11.68
2019-04-01T21:02:53.250Z,11.43
2019-04-01T21:05:21.955Z,11.37
2019-04-01T21:07:50.688Z,11.31
2019-04-01T21:10:19.651Z,11.13
2019-04-01T21:12:48.578Z,11.27
2019-04-01T21:15:18.544Z,11.24
2019-04-01T21:17:47.534Z,11.17
2019-04-01T21:20:16.090Z,11.03
2019-04-01T21:22:46.600Z,11.20
2019-04-01T21:25:15.198Z,11.27
2019-04-01T21:27:44.614Z,11.00
2019-04-01T21:30:13.299Z,10.96
2019-04-01T21:32:41.674Z,10.82
2019-04-01T21:35:10.268Z,10.71
2019-04-01T21:37:38.729Z,10.86
2019-04-01T21:40:08.689Z,10.86
2019-04-01T21:42:37.436Z,10.85
2019-04-01T21:45:09.506Z,11.01
2019-04-01T21:47:37.884Z,10.94
2019-04-01T21:50:07.367Z,10.85
2019-04-01T21:52:35.743Z,11.07
2019-04-01T21:55:08.193Z,10.99
2019-04-01T21:57:36.983Z,11.07
2019-04-01T22:00:08.962Z,11.09
2019-04-01T22:02:38.265Z,11.02
2019-04-01T22:05:10.193Z,10.93
2019-04-01T22:07:38.715Z,10.81
2019-04-01T22:10:07.735Z,10.86
2019-04-01T22:12:36.668Z,10.88
2019-04-01T22:15:06.165Z,10.84
2019-04-01T22:17:34.669Z,10.79
2019-04-01T22:20:03.450Z,10.94
2019-04-01T22:22:32.843Z,10.51
2019-04-01T22:25:01.714Z,10.61
2019-04-01T22:27:30.805Z,10.75
2019-04-01T22:29:59.258Z,10.68
2019-04-01T22:32:27.821Z,10.78
2019-04-01T22:34:56.746Z,10.93
2019-04-01T22:37:28.328Z,10.87
2019-04-01T22:39:57.069Z,10.66
2019-04-01T22:42:29.915Z,10.38
2019-04-01T22:45:00.952Z,10.47
2019-04-01T22:47:29.657Z,10.47
2019-04-01T22:49:58.713Z,10.47
2019-04-01T22:52:27.340Z,10.67
2019-04-01T22:54:56.955Z,10.70
2019-04-01T22:57:25.670Z,10.60
2019-04-01T22:59:55.761Z,10.77
2019-04-01T23:02:24.420Z,10.75
2019-04-01T23:04:56.355Z,10.78
2019-04-01T23:07:25.889Z,10.47
2019-04-01T23:09:54.413Z,10.51
2019-04-01T23:12:25.426Z,10.45
2019-04-01T23:14:53.980Z,10.38
2019-04-01T23:17:22.332Z,10.39
2019-04-01T23:19:50.738Z,10.26
2019-04-01T23:22:23.205Z,10.23
2019-04-01T23:24:51.012Z,10.10
2019-04-01T23:27:19.436Z,10.02
2019-04-01T23:29:47.833Z,10.06
2019-04-01T23:32:16.739Z,9.89
2019-04-01T23:34:45.203Z,9.99
2019-04-01T23:37:13.615Z,9.81
2019-04-01T23:39:42.073Z,9.65
2019-04-01T23:42:10.724Z,9.72
2019-04-01T23:44:39.232Z,9.79
2019-04-01T23:47:10.659Z,9.95
2019-04-01T23:49:40.438Z,9.97
2019-04-01T23:52:09.179Z,10.06
2019-04-01T23:54:40.061Z,10.10
2019-04-01T23:57:08.477Z,10.04
2019-04-01T23:59:36.863Z,10.18
